Time;durP1;ratioP1;P1;durP2;ratioP2;P2;SDS_P1;SDS_P2;PMS_P1;PMS_P2;Temp;Humidity;BMP_temperature;BMP_pressure;BME280_temperature;BME280_humidity;BME280_pressure;Samples;Min_cycle;Max_cycle;Signal;HPM_P1;HPM_P2
2024/04/01 00:01:29;;;;;;;0.80;0.10;;;14.60;69.30;;;;;;6301727;28;20031;-69
2024/04/01 00:04:30;;;;;;;1.65;0.52;;;14.70;69.30;;;;;;6294916;28;20384;-70
2024/04/01 00:07:31;;;;;;;0.38;0.20;;;14.70;69.30;;;;;;6287348;28;20048;-70
2024/04/01 00:10:32;;;;;;;0.00;0.00;;;14.70;69.00;;;;;;6296592;28;20111;-71
2024/04/01 00:13:33;;;;;;;0.00;0.00;;;14.70;69.10;;;;;;6284787;28;20035;-72
2024/04/01 00:16:33;;;;;;;0.13;0.10;;;14.80;69.20;;;;;;6269623;28;20038;-71
2024/04/01 00:19:34;;;;;;;0.05;0.05;;;14.90;69.30;;;;;;6297963;28;20086;-71
2024/04/01 00:22:35;;;;;;;0.00;0.00;;;14.90;69.30;;;;;;6290627;28;20008;-70
2024/04/01 00:25:36;;;;;;;0.00;0.00;;;15.00;69.30;;;;;;6277863;28;20023;-70
2024/04/01 00:28:37;;;;;;;1.77;0.30;;;15.00;69.00;;;;;;6303849;28;20012;-71
2024/04/01 00:31:38;;;;;;;0.10;0.10;;;15.00;68.90;;;;;;6298543;28;20097;-69
2024/04/01 00:34:39;;;;;;;0.10;0.10;;;15.00;69.00;;;;;;6305832;28;20373;-69
2024/04/01 00:37:39;;;;;;;0.10;0.10;;;15.00;69.20;;;;;;6302428;28;20047;-71
2024/04/01 00:40:40;;;;;;;1.23;0.45;;;15.10;69.30;;;;;;6299148;28;20558;-71
2024/04/01 00:43:41;;;;;;;0.00;0.00;;;15.10;69.20;;;;;;6300195;28;20028;-70
2024/04/01 00:46:42;;;;;;;1.25;0.13;;;15.20;69.10;;;;;;6307832;28;20035;-71
2024/04/01 00:49:43;;;;;;;0.00;0.00;;;15.10;68.90;;;;;;6299362;28;20038;-71
2024/04/01 00:52:44;;;;;;;0.10;0.10;;;15.10;69.10;;;;;;6300882;28;20084;-71
2024/04/01 00:55:45;;;;;;;0.15;0.15;;;15.10;69.30;;;;;;6304410;28;20026;-73
2024/04/01 00:58:46;;;;;;;0.10;0.10;;;15.10;69.20;;;;;;6299768;28;20024;-71
2024/04/01 01:01:47;;;;;;;0.00;0.00;;;15.10;69.00;;;;;;6295897;28;20040;-70
2024/04/01 01:04:49;;;;;;;0.63;0.13;;;15.00;69.00;;;;;;6299754;28;20034;-72
2024/04/01 01:07:50;;;;;;;0.00;0.00;;;14.90;69.10;;;;;;6298529;28;20019;-71
2024/04/01 01:10:51;;;;;;;1.95;0.20;;;14.80;68.00;;;;;;6277919;28;20480;-71
2024/04/01 01:13:52;;;;;;;0.00;0.00;;;14.60;67.40;;;;;;6275927;28;20039;-69
2024/04/01 01:16:53;;;;;;;0.13;0.10;;;14.30;66.30;;;;;;6300611;28;20024;-71
2024/04/01 01:19:54;;;;;;;3.20;0.20;;;14.20;66.70;;;;;;6301112;28;20131;-69
2024/04/01 01:22:56;;;;;;;0.10;0.10;;;14.00;66.20;;;;;;6302434;28;20027;-68
2024/04/01 01:25:57;;;;;;;0.40;0.10;;;13.90;66.20;;;;;;6285818;28;20031;-70
2024/04/01 01:28:58;;;;;;;0.00;0.00;;;13.70;66.10;;;;;;6287560;28;20067;-69
2024/04/01 01:32:00;;;;;;;0.00;0.00;;;13.50;66.30;;;;;;6296769;28;20488;-71
2024/04/01 01:35:01;;;;;;;0.10;0.10;;;13.40;66.50;;;;;;6301499;28;20016;-69
2024/04/01 01:38:03;;;;;;;0.00;0.00;;;13.30;66.30;;;;;;6275510;28;20020;-70
2024/04/01 01:41:04;;;;;;;0.20;0.20;;;13.20;66.40;;;;;;6271145;28;20098;-71
2024/04/01 01:44:05;;;;;;;0.10;0.10;;;13.10;66.70;;;;;;6280110;28;20050;-70
2024/04/01 01:47:06;;;;;;;0.05;0.03;;;13.10;67.10;;;;;;6298819;28;20051;-70
2024/04/01 01:50:08;;;;;;;0.00;0.00;;;13.10;67.10;;;;;;6286597;28;20711;-71
2024/04/01 01:53:09;;;;;;;0.20;0.20;;;13.00;67.00;;;;;;6297378;28;20103;-71
2024/04/01 01:56:09;;;;;;;0.00;0.00;;;13.00;67.20;;;;;;6300489;28;20103;-71
2024/04/01 01:59:10;;;;;;;0.00;0.00;;;13.00;67.40;;;;;;6278354;28;20126;-71
2024/04/01 02:02:12;;;;;;;1.23;0.08;;;12.90;67.30;;;;;;6305217;28;20020;-71
2024/04/01 02:05:13;;;;;;;0.00;0.00;;;12.80;66.70;;;;;;6303746;28;20077;-69
2024/04/01 02:08:14;;;;;;;1.27;0.32;;;12.90;66.40;;;;;;6301475;28;20015;-71
2024/04/01 02:11:15;;;;;;;0.00;0.00;;;12.80;67.20;;;;;;6300662;28;20390;-70
2024/04/01 02:14:15;;;;;;;0.00;0.00;;;12.80;67.30;;;;;;6295909;28;20432;-72
2024/04/01 02:17:16;;;;;;;0.20;0.10;;;12.70;67.60;;;;;;6299652;28;20060;-70
2024/04/01 02:20:17;;;;;;;0.00;0.00;;;12.70;68.10;;;;;;6260520;28;20024;-69
2024/04/01 02:23:18;;;;;;;1.25;0.13;;;12.70;68.20;;;;;;6298162;28;20065;-70
2024/04/01 02:26:19;;;;;;;0.00;0.00;;;12.60;68.50;;;;;;6302350;28;20084;-71
2024/04/01 02:29:20;;;;;;;0.00;0.00;;;12.60;68.90;;;;;;6300523;28;20020;-70
2024/04/01 02:32:21;;;;;;;3.10;0.20;;;12.60;68.80;;;;;;6292312;28;20127;-70
2024/04/01 02:35:22;;;;;;;0.00;0.00;;;12.60;68.90;;;;;;6276687;28;20408;-71
2024/04/01 02:38:23;;;;;;;0.00;0.00;;;12.50;69.00;;;;;;6294094;28;20012;-69
2024/04/01 02:41:24;;;;;;;0.08;0.00;;;12.50;68.90;;;;;;6295861;28;20725;-71
2024/04/01 02:44:24;;;;;;;0.00;0.00;;;12.50;69.10;;;;;;6289856;28;20024;-70
2024/04/01 02:47:25;;;;;;;0.00;0.00;;;12.50;69.10;;;;;;6289609;28;20310;-70
2024/04/01 02:50:26;;;;;;;0.08;0.00;;;12.60;68.90;;;;;;6288778;28;20005;-70
2024/04/01 02:53:27;;;;;;;0.00;0.00;;;12.70;68.60;;;;;;6291862;28;20021;-69
2024/04/01 02:56:28;;;;;;;0.00;0.00;;;12.70;68.70;;;;;;6270811;28;20461;-71
2024/04/01 02:59:29;;;;;;;1.85;0.10;;;12.90;69.00;;;;;;6295821;28;20008;-71
2024/04/01 03:02:33;;;;;;;0.08;0.08;;;13.00;69.30;;;;;;6280137;28;20017;-70
2024/04/01 03:05:38;;;;;;;0.30;0.20;;;13.10;69.40;;;;;;6295074;28;20017;-70
2024/04/01 03:08:39;;;;;;;0.20;0.00;;;13.10;69.50;;;;;;6258776;28;20020;-71
2024/04/01 03:11:40;;;;;;;0.10;0.08;;;13.10;69.50;;;;;;6295047;28;20077;-71
2024/04/01 03:14:41;;;;;;;0.38;0.10;;;13.10;69.80;;;;;;6303564;28;20031;-71
2024/04/01 03:17:45;;;;;;;2.83;0.32;;;13.10;70.00;;;;;;6300165;28;20019;-70
2024/04/01 03:20:47;;;;;;;0.00;0.00;;;13.10;69.90;;;;;;6283188;28;20561;-70
2024/04/01 03:23:48;;;;;;;0.00;0.00;;;13.10;69.90;;;;;;6297037;28;20100;-70
2024/04/01 03:26:49;;;;;;;0.90;0.10;;;13.20;69.80;;;;;;6294958;28;20023;-71
2024/04/01 03:29:50;;;;;;;0.10;0.10;;;13.10;69.50;;;;;;6289658;28;20104;-70
2024/04/01 03:32:50;;;;;;;0.00;0.00;;;13.10;69.60;;;;;;6296398;28;20111;-72
2024/04/01 03:35:55;;;;;;;0.00;0.00;;;13.20;69.60;;;;;;6297281;28;20016;-70
2024/04/01 03:38:56;;;;;;;0.10;0.10;;;13.20;69.60;;;;;;6298516;28;20089;-70
2024/04/01 03:41:57;;;;;;;0.75;0.00;;;13.20;69.80;;;;;;6290109;28;20525;-69
2024/04/01 03:44:58;;;;;;;0.45;0.20;;;13.20;70.00;;;;;;6290700;28;20115;-71
2024/04/01 03:47:59;;;;;;;1.98;0.32;;;13.30;71.20;;;;;;6289004;28;20689;-69
2024/04/01 03:51:01;;;;;;;0.35;0.28;;;13.30;70.30;;;;;;6302719;28;20526;-70
2024/04/01 03:54:01;;;;;;;0.00;0.00;;;13.30;70.30;;;;;;6296804;28;20040;-71
2024/04/01 03:57:03;;;;;;;0.77;0.10;;;13.30;70.50;;;;;;6297297;28;20078;-71
2024/04/01 04:00:04;;;;;;;0.10;0.10;;;13.40;70.60;;;;;;6287595;28;20019;-70
2024/04/01 04:03:07;;;;;;;0.00;0.00;;;13.40;70.30;;;;;;6295386;28;20075;-71
2024/04/01 04:06:11;;;;;;;0.00;0.00;;;13.40;70.20;;;;;;6297447;28;20050;-70
2024/04/01 04:09:17;;;;;;;0.00;0.00;;;13.40;70.40;;;;;;6301594;28;20115;-70
2024/04/01 04:12:18;;;;;;;0.00;0.00;;;13.40;70.60;;;;;;6279567;28;20024;-71
2024/04/01 04:15:19;;;;;;;0.28;0.10;;;13.40;70.70;;;;;;6301997;28;20024;-70
2024/04/01 04:18:20;;;;;;;0.00;0.00;;;13.50;70.90;;;;;;6302568;28;20103;-70
2024/04/01 04:21:21;;;;;;;0.20;0.13;;;13.50;70.90;;;;;;6307459;28;20009;-71
2024/04/01 04:24:24;;;;;;;0.00;0.00;;;13.60;70.70;;;;;;6307166;28;20409;-70
2024/04/01 04:27:25;;;;;;;2.22;0.22;;;13.60;70.50;;;;;;6290596;28;20032;-70
2024/04/01 04:30:26;;;;;;;0.10;0.00;;;13.70;70.70;;;;;;6306555;28;20035;-70
2024/04/01 04:33:27;;;;;;;0.13;0.10;;;13.80;70.60;;;;;;6301700;28;20049;-71
2024/04/01 04:36:28;;;;;;;0.17;0.17;;;13.80;70.40;;;;;;6299869;28;20492;-71
2024/04/01 04:39:29;;;;;;;0.10;0.10;;;13.80;70.50;;;;;;6305505;28;20233;-71
2024/04/01 04:42:30;;;;;;;0.00;0.00;;;13.80;70.20;;;;;;6283363;28;20085;-70
2024/04/01 04:45:31;;;;;;;0.15;0.15;;;13.80;70.00;;;;;;6307882;28;20016;-70
2024/04/01 04:48:32;;;;;;;0.30;0.20;;;13.90;70.30;;;;;;6286369;28;20113;-69
2024/04/01 04:51:33;;;;;;;0.10;0.10;;;13.90;70.40;;;;;;6303048;28;20077;-70
2024/04/01 04:54:34;;;;;;;0.00;0.00;;;13.90;70.30;;;;;;6272911;28;20017;-70
2024/04/01 04:57:35;;;;;;;0.20;0.20;;;13.90;70.00;;;;;;6302938;28;20427;-69
2024/04/01 05:00:36;;;;;;;0.38;0.20;;;13.90;69.80;;;;;;6287009;28;20016;-71
2024/04/01 05:03:37;;;;;;;0.63;0.17;;;13.90;69.50;;;;;;6298284;28;20576;-70
2024/04/01 05:06:40;;;;;;;0.17;0.17;;;13.90;69.70;;;;;;6300823;28;20035;-70
2024/04/01 05:09:41;;;;;;;0.20;0.10;;;13.90;69.90;;;;;;6306700;28;20023;-71
2024/04/01 05:12:44;;;;;;;2.20;0.15;;;13.90;70.00;;;;;;6295991;28;20019;-70
2024/04/01 05:15:45;;;;;;;0.03;0.03;;;13.90;69.90;;;;;;6286308;28;20008;-71
2024/04/01 05:18:46;;;;;;;0.85;0.20;;;14.00;69.70;;;;;;6284426;28;20115;-69
2024/04/01 05:21:50;;;;;;;2.67;0.10;;;13.90;69.60;;;;;;6277603;28;20750;-71
2024/04/01 05:24:52;;;;;;;0.10;0.10;;;13.90;69.80;;;;;;6280894;28;20016;-70
2024/04/01 05:27:52;;;;;;;0.17;0.17;;;13.90;70.00;;;;;;6277989;28;20401;-70
2024/04/01 05:30:53;;;;;;;0.10;0.05;;;13.90;70.10;;;;;;6301651;28;20063;-70
2024/04/01 05:33:56;;;;;;;0.10;0.10;;;14.00;70.20;;;;;;6278438;28;20016;-69
2024/04/01 05:36:57;;;;;;;2.17;0.20;;;13.90;69.80;;;;;;6295520;28;20103;-70
2024/04/01 05:39:58;;;;;;;0.22;0.20;;;13.90;69.90;;;;;;6302705;28;20443;-71
2024/04/01 05:42:59;;;;;;;0.20;0.10;;;13.80;70.20;;;;;;6282590;28;20026;-70
2024/04/01 05:46:00;;;;;;;0.32;0.20;;;13.80;70.40;;;;;;6298024;28;20111;-69
2024/04/01 05:49:01;;;;;;;0.40;0.30;;;13.80;70.40;;;;;;6281392;28;20629;-70
2024/04/01 05:52:02;;;;;;;0.43;0.20;;;13.80;70.60;;;;;;6296135;28;20028;-71
2024/04/01 05:55:03;;;;;;;1.08;0.13;;;13.80;70.70;;;;;;6294439;28;20032;-69
2024/04/01 05:58:04;;;;;;;0.20;0.20;;;13.80;70.60;;;;;;6296983;28;20058;-71
2024/04/01 06:01:05;;;;;;;2.67;0.30;;;13.80;70.80;;;;;;6303304;28;20461;-69
2024/04/01 06:04:06;;;;;;;0.35;0.32;;;13.70;70.90;;;;;;6285371;28;20016;-71
2024/04/01 06:07:07;;;;;;;0.45;0.30;;;13.70;71.00;;;;;;6298585;28;20069;-70
2024/04/01 06:10:07;;;;;;;1.23;0.47;;;13.70;71.10;;;;;;6280853;28;20031;-71
2024/04/01 06:13:08;;;;;;;0.52;0.32;;;13.70;71.30;;;;;;6276120;28;20476;-71
2024/04/01 06:16:10;;;;;;;0.20;0.20;;;13.60;71.40;;;;;;6287207;28;20028;-71
2024/04/01 06:19:11;;;;;;;0.93;0.50;;;13.60;71.40;;;;;;6284614;28;20624;-71
2024/04/01 06:22:11;;;;;;;0.30;0.20;;;13.60;71.50;;;;;;6297868;28;20047;-70
2024/04/01 06:25:12;;;;;;;0.10;0.10;;;13.60;71.50;;;;;;6293883;28;20091;-70
2024/04/01 06:28:13;;;;;;;0.30;0.28;;;13.60;71.40;;;;;;6277933;28;20033;-71
2024/04/01 06:31:17;;;;;;;3.63;1.95;;;13.60;71.50;;;;;;6293571;28;20020;-70
2024/04/01 06:34:18;;;;;;;1.70;0.30;;;13.60;71.50;;;;;;6298787;28;20024;-70
2024/04/01 06:37:19;;;;;;;1.48;0.60;;;13.60;71.70;;;;;;6299495;28;20042;-70
2024/04/01 06:40:20;;;;;;;1.30;0.35;;;13.60;72.00;;;;;;6298445;28;20005;-71
2024/04/01 06:43:21;;;;;;;0.10;0.10;;;13.60;72.20;;;;;;6302323;28;20110;-72
2024/04/01 06:46:22;;;;;;;0.13;0.13;;;13.60;72.20;;;;;;6304792;28;20035;-70
2024/04/01 06:49:23;;;;;;;0.20;0.20;;;13.60;72.20;;;;;;6300911;28;20466;-71
2024/04/01 06:52:24;;;;;;;1.15;0.30;;;13.50;72.30;;;;;;6292993;28;20491;-72
2024/04/01 06:55:25;;;;;;;0.10;0.10;;;13.50;72.40;;;;;;6298251;28;20016;-71
2024/04/01 06:58:26;;;;;;;0.80;0.40;;;13.50;72.50;;;;;;6280864;28;20424;-70
2024/04/01 07:01:29;;;;;;;2.65;0.40;;;13.50;72.70;;;;;;6279517;28;20028;-69
2024/04/01 07:04:29;;;;;;;0.80;0.40;;;13.40;72.70;;;;;;6300764;28;20136;-71
2024/04/01 07:07:30;;;;;;;0.40;0.25;;;13.60;72.90;;;;;;6296902;28;20074;-71
2024/04/01 07:10:31;;;;;;;0.20;0.20;;;13.60;72.80;;;;;;6276754;28;20009;-70
2024/04/01 07:13:32;;;;;;;0.68;0.50;;;13.70;72.80;;;;;;6274773;28;20024;-70
2024/04/01 07:16:33;;;;;;;1.02;0.65;;;13.80;72.30;;;;;;6293466;28;20498;-69
2024/04/01 07:19:34;;;;;;;0.63;0.40;;;13.90;72.20;;;;;;6295196;28;20069;-68
2024/04/01 07:22:35;;;;;;;20.92;2.13;;;13.90;72.20;;;;;;6276338;28;20495;-71
2024/04/01 07:25:36;;;;;;;2.17;1.10;;;14.00;72.30;;;;;;6292243;28;20047;-71
2024/04/01 07:28:36;;;;;;;1.85;1.48;;;13.80;72.10;;;;;;6290895;28;20103;-71
2024/04/01 07:31:37;;;;;;;2.95;1.90;;;14.10;72.40;;;;;;6290884;28;20975;-72
2024/04/01 07:34:38;;;;;;;2.10;1.50;;;14.10;72.40;;;;;;6289631;28;20116;-69
2024/04/01 07:37:41;;;;;;;2.17;1.60;;;14.10;72.50;;;;;;6290916;28;20012;-71
2024/04/01 07:40:42;;;;;;;0.82;0.80;;;14.10;72.50;;;;;;6255244;28;20016;-70
2024/04/01 07:43:43;;;;;;;2.67;2.05;;;14.10;72.70;;;;;;6257535;28;20483;-70
2024/04/01 07:46:43;;;;;;;5.07;3.33;;;14.10;72.30;;;;;;6288724;28;20024;-70
2024/04/01 07:49:44;;;;;;;4.97;3.08;;;14.00;72.20;;;;;;6288695;28;20020;-71
2024/04/01 07:52:45;;;;;;;3.28;2.40;;;14.00;72.40;;;;;;6271785;28;20122;-70
2024/04/01 07:55:46;;;;;;;5.53;2.13;;;14.00;72.10;;;;;;6271777;28;20091;-71
2024/04/01 07:58:47;;;;;;;2.38;1.75;;;14.10;72.20;;;;;;6290598;28;20036;-71
2024/04/01 08:01:48;;;;;;;4.43;1.67;;;14.20;72.60;;;;;;6292445;28;20063;-71
2024/04/01 08:04:49;;;;;;;1.85;1.33;;;14.30;72.60;;;;;;6293307;28;20409;-72
2024/04/01 08:07:50;;;;;;;1.65;1.52;;;14.50;72.50;;;;;;6271449;28;20016;-71
2024/04/01 08:10:51;;;;;;;3.20;1.63;;;14.70;72.20;;;;;;6288844;28;20685;-69
2024/04/01 08:13:52;;;;;;;2.53;1.80;;;15.00;71.80;;;;;;6290799;28;20438;-70
2024/04/01 08:16:53;;;;;;;2.42;2.08;;;15.10;71.50;;;;;;6271575;28;20020;-71
2024/04/01 08:19:54;;;;;;;6.22;1.48;;;15.30;71.10;;;;;;6294782;28;20024;-71
2024/04/01 08:22:55;;;;;;;2.85;1.65;;;15.40;70.90;;;;;;6291868;28;20017;-71
2024/04/01 08:25:56;;;;;;;2.92;1.48;;;15.60;70.60;;;;;;6293513;28;20111;-73
2024/04/01 08:28:57;;;;;;;2.83;1.48;;;15.70;69.90;;;;;;6300912;28;20063;-72
2024/04/01 08:31:58;;;;;;;2.20;1.55;;;15.70;69.70;;;;;;6275465;28;20139;-72
2024/04/01 08:35:00;;;;;;;3.67;1.65;;;15.70;69.70;;;;;;6291713;28;20020;-72
2024/04/01 08:38:02;;;;;;;1.40;1.20;;;15.60;69.70;;;;;;6261616;28;20024;-72
2024/04/01 08:41:26;;;;;;;1.73;1.25;;;15.60;70.00;;;;;;6279531;28;20218;-72
2024/04/01 08:44:28;;;;;;;1.33;0.95;;;15.50;70.00;;;;;;6291088;28;20452;-71
2024/04/01 08:47:32;;;;;;;1.20;1.10;;;15.50;69.90;;;;;;6262056;28;20016;-71
2024/04/01 08:50:36;;;;;;;3.10;1.67;;;15.40;70.20;;;;;;6306685;28;20020;-72
2024/04/01 08:54:03;;;;;;;3.22;1.58;;;15.40;70.40;;;;;;6300691;28;20028;-72
2024/04/01 08:57:04;;;;;;;1.75;1.30;;;15.40;70.10;;;;;;6309404;28;20018;-69
2024/04/01 09:00:08;;;;;;;3.97;1.90;;;15.40;70.00;;;;;;6303029;28;20024;-73
2024/04/01 09:03:09;;;;;;;3.00;1.60;;;15.40;70.20;;;;;;6291324;28;20452;-72
2024/04/01 09:06:10;;;;;;;2.00;1.80;;;15.50;70.20;;;;;;6305652;28;20020;-71
2024/04/01 09:09:12;;;;;;;3.65;2.15;;;15.60;70.00;;;;;;6303312;28;20042;-72
2024/04/01 09:12:13;;;;;;;2.38;1.73;;;15.70;69.70;;;;;;6303513;28;20028;-72
2024/04/01 09:15:18;;;;;;;2.92;2.00;;;15.90;69.70;;;;;;6299170;28;20401;-74
2024/04/01 09:18:18;;;;;;;2.88;2.10;;;16.00;70.30;;;;;;6308380;28;20091;-72
2024/04/01 09:21:21;;;;;;;3.92;1.88;;;16.00;69.30;;;;;;6268257;28;20051;-74
2024/04/01 09:24:22;;;;;;;2.67;1.60;;;16.10;69.40;;;;;;6290026;28;20024;-71
2024/04/01 09:27:25;;;;;;;2.75;1.98;;;16.10;69.00;;;;;;6289753;28;20031;-72
2024/04/01 09:30:26;;;;;;;3.30;2.00;;;16.10;69.00;;;;;;6301664;28;20492;-73
2024/04/01 09:33:28;;;;;;;2.08;1.50;;;16.10;69.30;;;;;;6289727;28;20036;-73
2024/04/01 09:36:29;;;;;;;1.90;1.52;;;16.20;69.60;;;;;;6301495;28;20098;-72
2024/04/01 09:39:30;;;;;;;5.97;2.03;;;16.30;69.50;;;;;;6287214;28;20031;-72
2024/04/01 09:42:31;;;;;;;3.50;2.08;;;16.50;69.10;;;;;;6309707;28;20024;-71
2024/04/01 09:45:42;;;;;;;2.78;1.80;;;16.70;68.60;;;;;;6293185;28;20069;-74
2024/04/01 09:48:43;;;;;;;2.72;1.60;;;16.80;68.30;;;;;;6308182;28;20088;-73
2024/04/01 09:51:46;;;;;;;5.00;1.85;;;16.90;68.10;;;;;;6284985;28;20054;-73
2024/04/01 09:54:50;;;;;;;4.10;1.90;;;17.00;67.30;;;;;;6293019;28;20039;-73
2024/04/01 09:58:08;;;;;;;2.45;1.63;;;16.80;67.20;;;;;;6308445;28;20027;-74
2024/04/01 10:01:30;;;;;;;3.70;1.88;;;16.70;67.60;;;;;;6294204;28;20083;-74
2024/04/01 10:04:51;;;;;;;3.50;2.17;;;16.70;68.30;;;;;;6289227;28;20103;-73
2024/04/01 10:08:35;;;;;;;3.67;1.95;;;16.70;68.80;;;;;;6299410;28;20066;-74
2024/04/01 10:12:03;;;;;;;9.75;5.70;;;16.70;68.00;;;;;;6299660;28;20116;-72
2024/04/01 10:15:28;;;;;;;2.17;1.60;;;16.70;67.40;;;;;;6305739;28;20038;-72
2024/04/01 10:19:06;;;;;;;5.47;2.80;;;16.70;67.20;;;;;;6306786;28;20173;-73
2024/04/01 10:22:28;;;;;;;4.30;2.33;;;16.70;67.20;;;;;;6306992;28;20027;-75
2024/04/01 10:25:44;;;;;;;1.55;1.15;;;16.80;66.60;;;;;;6294516;28;20244;-73
2024/04/01 10:29:00;;;;;;;8.35;2.30;;;16.90;65.20;;;;;;6282680;28;20055;-75
2024/04/01 10:32:15;;;;;;;1.33;0.95;;;17.00;64.60;;;;;;6301272;28;20175;-73
2024/04/01 10:35:44;;;;;;;2.60;0.90;;;17.10;64.40;;;;;;6281991;28;20089;-74
2024/04/01 10:39:13;;;;;;;1.10;0.90;;;17.30;64.60;;;;;;6271177;28;20023;-73
2024/04/01 10:42:42;;;;;;;0.90;0.80;;;17.60;64.50;;;;;;6288027;28;20055;-71
2024/04/01 10:46:03;;;;;;;0.60;0.60;;;18.00;63.10;;;;;;6291161;28;20016;-73
2024/04/01 10:49:23;;;;;;;0.68;0.50;;;18.40;59.80;;;;;;6306701;28;20186;-74
2024/04/01 10:52:23;;;;;;;1.48;1.05;;;18.60;57.50;;;;;;6303294;28;20063;-72
2024/04/01 10:55:24;;;;;;;2.00;0.98;;;19.00;56.40;;;;;;6281384;28;20677;-73
2024/04/01 10:58:52;;;;;;;0.70;0.60;;;19.50;57.10;;;;;;6300721;28;20016;-73
2024/04/01 11:02:14;;;;;;;0.52;0.45;;;19.90;56.20;;;;;;6302095;28;20084;-73
2024/04/01 11:05:46;;;;;;;1.17;0.50;;;20.40;55.70;;;;;;6288194;28;20326;-73
2024/04/01 11:09:21;;;;;;;0.13;0.13;;;20.40;53.30;;;;;;6302536;28;20043;-74
2024/04/01 11:12:32;;;;;;;0.28;0.28;;;20.20;52.70;;;;;;6287942;28;20144;-71
2024/04/01 11:15:34;;;;;;;1.13;0.20;;;19.90;51.50;;;;;;6286321;28;20051;-73
2024/04/01 11:18:54;;;;;;;0.93;0.65;;;19.70;52.40;;;;;;6287705;28;21481;-73
2024/04/01 11:22:00;;;;;;;0.10;0.10;;;20.00;53.30;;;;;;6297545;28;20016;-74
2024/04/01 11:25:04;;;;;;;0.10;0.10;;;20.50;52.60;;;;;;6306056;28;20028;-74
2024/04/01 11:28:33;;;;;;;0.98;0.55;;;20.80;52.10;;;;;;6287041;28;20546;-73
2024/04/01 11:31:38;;;;;;;1.15;0.75;;;21.30;49.90;;;;;;6276836;28;20020;-75
2024/04/01 11:35:03;;;;;;;0.68;0.68;;;21.90;48.70;;;;;;6291466;28;20012;-73
2024/04/01 11:38:29;;;;;;;0.20;0.20;;;22.10;46.60;;;;;;6282546;28;20024;-73
2024/04/01 11:41:36;;;;;;;0.70;0.43;;;21.90;44.90;;;;;;6295722;28;20055;-73
2024/04/01 11:44:38;;;;;;;0.20;0.20;;;21.50;45.80;;;;;;6305461;28;20016;-73
2024/04/01 11:47:42;;;;;;;0.77;0.52;;;21.40;46.10;;;;;;6294426;28;20074;-74
2024/04/01 11:50:54;;;;;;;0.32;0.32;;;21.30;46.50;;;;;;6286764;28;20032;-73
2024/04/01 11:53:55;;;;;;;0.22;0.20;;;21.30;46.40;;;;;;6280168;28;20532;-71
2024/04/01 11:56:56;;;;;;;0.30;0.30;;;21.50;46.20;;;;;;6293702;28;20024;-73
2024/04/01 12:00:04;;;;;;;0.30;0.30;;;21.80;45.60;;;;;;6287977;28;20065;-73
2024/04/01 12:03:10;;;;;;;0.30;0.10;;;22.10;45.00;;;;;;6290171;28;20036;-73
2024/04/01 12:06:16;;;;;;;0.40;0.20;;;22.40;45.10;;;;;;6262120;28;20132;-74
2024/04/01 12:09:22;;;;;;;0.50;0.32;;;22.90;44.40;;;;;;6280750;28;20097;-73
2024/04/01 12:12:23;;;;;;;0.20;0.20;;;23.70;42.50;;;;;;6297349;28;20082;-73
2024/04/01 12:15:26;;;;;;;3.63;0.82;;;24.40;39.60;;;;;;6286943;28;20551;-74
2024/04/01 12:18:27;;;;;;;0.40;0.40;;;24.80;38.60;;;;;;6291889;28;20044;-73
2024/04/01 12:21:31;;;;;;;1.48;0.30;;;25.20;37.10;;;;;;6293013;28;20100;-73
2024/04/01 12:24:32;;;;;;;0.80;0.32;;;25.70;36.60;;;;;;6294828;28;20578;-74
2024/04/01 12:27:33;;;;;;;0.30;0.20;;;26.20;36.00;;;;;;6301657;28;20836;-73
2024/04/01 12:30:38;;;;;;;0.20;0.20;;;26.70;35.30;;;;;;6285747;28;20021;-74
2024/04/01 12:33:41;;;;;;;0.20;0.20;;;27.10;33.20;;;;;;6293881;28;20114;-74
2024/04/01 12:36:46;;;;;;;0.32;0.32;;;26.90;32.70;;;;;;6267352;28;20027;-73
2024/04/01 12:39:51;;;;;;;0.20;0.20;;;26.80;32.60;;;;;;6296830;28;20739;-75
2024/04/01 12:42:54;;;;;;;0.45;0.20;;;26.20;31.40;;;;;;6292060;28;20468;-73
2024/04/01 12:45:58;;;;;;;0.20;0.20;;;25.70;32.80;;;;;;6292273;28;20484;-74
2024/04/01 12:48:59;;;;;;;0.70;0.30;;;25.10;33.30;;;;;;6303764;28;20100;-73
2024/04/01 12:52:02;;;;;;;0.10;0.10;;;24.60;33.70;;;;;;6292452;28;20099;-73
2024/04/01 12:55:23;;;;;;;1.27;0.20;;;24.10;34.50;;;;;;6285370;28;20034;-74
2024/04/01 12:58:30;;;;;;;0.10;0.10;;;23.60;34.60;;;;;;6292354;28;20008;-73
2024/04/01 13:01:57;;;;;;;1.10;0.35;;;23.30;34.70;;;;;;6310714;28;20059;-73
2024/04/01 13:05:26;;;;;;;0.40;0.30;;;23.00;34.70;;;;;;6165898;28;20039;-71
2024/04/01 13:08:38;;;;;;;0.30;0.30;;;22.80;34.70;;;;;;6177645;28;20042;-73
2024/04/01 13:12:06;;;;;;;4.32;1.50;;;22.80;34.40;;;;;;6181795;28;20078;-73
2024/04/01 13:15:16;;;;;;;1.65;0.63;;;23.30;34.50;;;;;;6174283;28;20043;-73
2024/04/01 13:18:41;;;;;;;0.70;0.40;;;24.10;33.90;;;;;;6157749;28;20080;-72
2024/04/01 13:21:54;;;;;;;0.10;0.10;;;24.20;32.80;;;;;;6175295;28;20097;-72
2024/04/01 13:25:00;;;;;;;0.38;0.22;;;23.90;32.40;;;;;;6185470;28;20030;-72
2024/04/01 13:28:13;;;;;;;0.38;0.20;;;23.60;33.40;;;;;;6170532;28;20081;-74
2024/04/01 13:31:44;;;;;;;4.30;0.65;;;23.40;33.80;;;;;;6173263;28;20553;-72
2024/04/01 13:34:53;;;;;;;1.83;0.57;;;23.00;35.10;;;;;;6153223;28;20045;-73
2024/04/01 13:38:19;;;;;;;0.50;0.30;;;22.70;35.80;;;;;;6180429;28;20049;-72
2024/04/01 13:41:26;;;;;;;0.50;0.30;;;22.60;36.10;;;;;;6228850;28;20088;-72
2024/04/01 13:44:51;;;;;;;0.82;0.70;;;22.40;36.20;;;;;;6286486;28;20055;-72
2024/04/01 13:48:24;;;;;;;0.70;0.40;;;22.20;36.30;;;;;;6294554;28;20020;-72
2024/04/01 13:51:31;;;;;;;0.40;0.40;;;22.10;36.30;;;;;;6271416;28;20078;-73
2024/04/01 13:54:41;;;;;;;1.08;0.40;;;22.00;36.60;;;;;;6306531;28;20180;-73
2024/04/01 13:57:45;;;;;;;0.45;0.20;;;21.90;36.40;;;;;;6290966;28;20031;-73
2024/04/01 14:01:04;;;;;;;0.52;0.40;;;21.90;36.30;;;;;;6308550;28;20041;-72
2024/04/01 14:04:35;;;;;;;0.90;0.60;;;21.80;36.20;;;;;;6284569;28;20048;-72
2024/04/01 14:07:59;;;;;;;0.30;0.30;;;21.80;36.80;;;;;;6305369;28;20031;-72
2024/04/01 14:11:24;;;;;;;0.28;0.28;;;21.90;36.40;;;;;;6286871;28;20040;-72
2024/04/01 14:14:37;;;;;;;0.20;0.20;;;21.90;35.60;;;;;;6282396;28;20039;-72
2024/04/01 14:17:47;;;;;;;5.82;1.30;;;21.70;36.00;;;;;;6306837;28;20043;-72
2024/04/01 14:20:48;;;;;;;0.77;0.52;;;21.60;36.00;;;;;;6300919;28;20016;-73
2024/04/01 14:24:29;;;;;;;0.43;0.30;;;21.60;35.90;;;;;;6302936;28;20139;-73
2024/04/01 14:27:31;;;;;;;0.47;0.20;;;21.40;34.90;;;;;;6287082;28;20062;-72
2024/04/01 14:30:32;;;;;;;0.30;0.30;;;21.30;35.00;;;;;;6282322;28;20025;-72
2024/04/01 14:33:33;;;;;;;0.75;0.22;;;21.30;34.80;;;;;;6286402;28;20020;-75
2024/04/01 14:36:34;;;;;;;1.02;0.40;;;21.30;35.00;;;;;;6294038;28;20033;-72
2024/04/01 14:39:35;;;;;;;0.30;0.30;;;21.40;34.80;;;;;;6281978;28;20060;-73
2024/04/01 14:42:37;;;;;;;0.32;0.32;;;21.50;34.40;;;;;;6285756;28;20123;-73
2024/04/01 14:45:38;;;;;;;0.40;0.30;;;21.40;33.70;;;;;;6302466;28;20081;-72
2024/04/01 14:48:39;;;;;;;0.30;0.30;;;21.30;33.40;;;;;;6268944;28;20107;-73
2024/04/01 14:51:40;;;;;;;0.40;0.20;;;21.20;33.90;;;;;;6301632;28;20057;-74
2024/04/01 14:54:41;;;;;;;0.60;0.43;;;21.20;34.00;;;;;;6306271;28;20474;-73
2024/04/01 14:57:42;;;;;;;2.65;0.85;;;21.20;34.10;;;;;;6306268;28;20050;-73
2024/04/01 15:00:43;;;;;;;0.82;0.30;;;21.50;34.30;;;;;;6296102;28;20036;-73
2024/04/01 15:03:44;;;;;;;0.20;0.20;;;21.70;33.90;;;;;;6304791;28;20735;-72
2024/04/01 15:06:46;;;;;;;0.65;0.25;;;21.80;33.40;;;;;;6292753;28;20127;-73
2024/04/01 15:09:47;;;;;;;0.70;0.32;;;21.70;32.70;;;;;;6306300;28;20095;-73
2024/04/01 15:12:48;;;;;;;0.52;0.30;;;21.60;33.00;;;;;;6287446;28;20085;-73
2024/04/01 15:15:49;;;;;;;0.55;0.43;;;21.40;33.50;;;;;;6288443;28;20021;-72
2024/04/01 15:18:50;;;;;;;1.30;0.47;;;21.40;33.90;;;;;;6281700;28;20058;-72
2024/04/01 15:21:54;;;;;;;1.45;0.98;;;21.40;34.40;;;;;;6283893;28;20409;-71
2024/04/01 15:24:56;;;;;;;0.10;0.10;;;21.50;34.80;;;;;;6296792;28;20449;-73
2024/04/01 15:27:56;;;;;;;0.52;0.32;;;21.50;34.40;;;;;;6282569;28;20020;-74
2024/04/01 15:30:58;;;;;;;0.55;0.50;;;21.50;34.40;;;;;;6292830;28;20070;-74
2024/04/01 15:33:59;;;;;;;1.15;0.77;;;21.50;34.60;;;;;;6285356;28;20105;-73
2024/04/01 15:37:01;;;;;;;0.30;0.30;;;21.60;34.50;;;;;;6273802;28;20206;-73
2024/04/01 15:40:05;;;;;;;0.47;0.20;;;21.60;33.90;;;;;;6300106;28;20014;-73
2024/04/01 15:43:06;;;;;;;1.00;0.50;;;21.60;33.50;;;;;;6306629;28;20490;-73
2024/04/01 15:46:07;;;;;;;0.68;0.50;;;21.60;33.50;;;;;;6298696;28;20023;-73
2024/04/01 15:49:09;;;;;;;1.27;0.77;;;21.50;33.30;;;;;;6302632;28;20027;-74
2024/04/01 15:52:11;;;;;;;0.60;0.50;;;21.40;33.00;;;;;;6305697;28;20067;-74
2024/04/01 15:55:13;;;;;;;0.47;0.38;;;21.30;33.00;;;;;;6301108;28;20040;-73
2024/04/01 15:58:15;;;;;;;1.05;0.88;;;21.30;33.20;;;;;;6288851;28;20508;-73
2024/04/01 16:01:20;;;;;;;1.33;1.10;;;21.30;33.10;;;;;;6290836;28;20328;-72
2024/04/01 16:04:22;;;;;;;0.20;0.20;;;21.30;33.20;;;;;;6304065;28;20028;-73